sensor_id;sensor_type;location;lat;lon;timestamp;P1;durP1;ratioP1;P2;durP2;ratioP2
65471;SDS011;52068;50.710;14.492;2024-03-08T00:02:24;7.75;;;5.55;;
65471;SDS011;52068;50.710;14.492;2024-03-08T00:04:49;7.93;;;5.93;;
65471;SDS011;52068;50.710;14.492;2024-03-08T00:07:15;9.35;;;6.50;;
65471;SDS011;52068;50.710;14.492;2024-03-08T00:09:40;9.20;;;6.38;;
65471;SDS011;52068;50.710;14.492;2024-03-08T00:12:06;9.30;;;6.25;;
65471;SDS011;52068;50.710;14.492;2024-03-08T00:14:31;17.67;;;6.63;;
65471;SDS011;52068;50.710;14.492;2024-03-08T00:16:57;8.63;;;6.43;;
65471;SDS011;52068;50.710;14.492;2024-03-08T00:19:22;7.80;;;5.90;;
65471;SDS011;52068;50.710;14.492;2024-03-08T00:21:47;9.07;;;6.28;;
65471;SDS011;52068;50.710;14.492;2024-03-08T00:24:13;11.35;;;6.53;;
65471;SDS011;52068;50.710;14.492;2024-03-08T00:26:38;6.97;;;5.38;;
65471;SDS011;52068;50.710;14.492;2024-03-08T00:29:04;10.98;;;5.75;;
65471;SDS011;52068;50.710;14.492;2024-03-08T00:31:29;8.85;;;6.57;;
65471;SDS011;52068;50.710;14.492;2024-03-08T00:33:56;8.57;;;6.25;;
65471;SDS011;52068;50.710;14.492;2024-03-08T00:36:22;9.80;;;6.40;;
65471;SDS011;52068;50.710;14.492;2024-03-08T00:38:47;7.65;;;5.30;;
65471;SDS011;52068;50.710;14.492;2024-03-08T00:41:13;10.70;;;6.55;;
65471;SDS011;52068;50.710;14.492;2024-03-08T00:43:38;6.10;;;5.22;;
65471;SDS011;52068;50.710;14.492;2024-03-08T00:46:04;9.23;;;5.82;;
65471;SDS011;52068;50.710;14.492;2024-03-08T00:48:29;9.65;;;6.72;;
65471;SDS011;52068;50.710;14.492;2024-03-08T00:50:56;8.63;;;6.00;;
65471;SDS011;52068;50.710;14.492;2024-03-08T00:53:21;12.45;;;6.15;;
65471;SDS011;52068;50.710;14.492;2024-03-08T00:55:47;7.15;;;5.65;;
65471;SDS011;52068;50.710;14.492;2024-03-08T00:58:13;8.43;;;6.22;;
65471;SDS011;52068;50.710;14.492;2024-03-08T01:00:38;11.57;;;5.88;;
65471;SDS011;52068;50.710;14.492;2024-03-08T01:03:04;8.30;;;6.25;;
65471;SDS011;52068;50.710;14.492;2024-03-08T01:05:30;9.82;;;6.25;;
65471;SDS011;52068;50.710;14.492;2024-03-08T01:07:56;9.45;;;6.53;;
65471;SDS011;52068;50.710;14.492;2024-03-08T01:10:21;8.88;;;6.18;;
65471;SDS011;52068;50.710;14.492;2024-03-08T01:12:46;7.20;;;6.00;;
65471;SDS011;52068;50.710;14.492;2024-03-08T01:15:12;14.05;;;6.85;;
65471;SDS011;52068;50.710;14.492;2024-03-08T01:17:37;8.40;;;6.22;;
65471;SDS011;52068;50.710;14.492;2024-03-08T01:20:04;12.57;;;7.00;;
65471;SDS011;52068;50.710;14.492;2024-03-08T01:22:30;10.15;;;6.82;;
65471;SDS011;52068;50.710;14.492;2024-03-08T01:24:55;12.43;;;6.97;;
65471;SDS011;52068;50.710;14.492;2024-03-08T01:27:21;8.30;;;6.60;;
65471;SDS011;52068;50.710;14.492;2024-03-08T01:29:47;8.45;;;6.25;;
65471;SDS011;52068;50.710;14.492;2024-03-08T01:32:12;8.80;;;5.88;;
65471;SDS011;52068;50.710;14.492;2024-03-08T01:34:38;9.18;;;6.43;;
65471;SDS011;52068;50.710;14.492;2024-03-08T01:37:03;9.77;;;6.35;;
65471;SDS011;52068;50.710;14.492;2024-03-08T01:39:29;10.18;;;5.97;;
65471;SDS011;52068;50.710;14.492;2024-03-08T01:41:54;11.32;;;6.25;;
65471;SDS011;52068;50.710;14.492;2024-03-08T01:44:20;8.90;;;5.63;;
65471;SDS011;52068;50.710;14.492;2024-03-08T01:46:46;8.65;;;6.32;;
65471;SDS011;52068;50.710;14.492;2024-03-08T01:49:13;9.18;;;6.40;;
65471;SDS011;52068;50.710;14.492;2024-03-08T01:51:39;8.55;;;6.18;;
65471;SDS011;52068;50.710;14.492;2024-03-08T01:54:06;9.05;;;5.82;;
65471;SDS011;52068;50.710;14.492;2024-03-08T01:56:35;7.25;;;5.53;;
65471;SDS011;52068;50.710;14.492;2024-03-08T01:59:01;8.20;;;5.65;;
65471;SDS011;52068;50.710;14.492;2024-03-08T02:01:27;12.60;;;5.72;;
65471;SDS011;52068;50.710;14.492;2024-03-08T02:03:53;7.85;;;5.88;;
65471;SDS011;52068;50.710;14.492;2024-03-08T02:06:19;7.95;;;5.97;;
65471;SDS011;52068;50.710;14.492;2024-03-08T02:08:44;7.40;;;5.72;;
65471;SDS011;52068;50.710;14.492;2024-03-08T02:11:10;8.25;;;6.30;;
65471;SDS011;52068;50.710;14.492;2024-03-08T02:13:36;7.78;;;6.10;;
65471;SDS011;52068;50.710;14.492;2024-03-08T02:16:02;8.73;;;6.40;;
65471;SDS011;52068;50.710;14.492;2024-03-08T02:18:28;10.32;;;6.38;;
65471;SDS011;52068;50.710;14.492;2024-03-08T02:21:01;10.90;;;6.57;;
65471;SDS011;52068;50.710;14.492;2024-03-08T02:23:27;8.73;;;6.05;;
65471;SDS011;52068;50.710;14.492;2024-03-08T02:25:54;7.10;;;5.55;;
65471;SDS011;52068;50.710;14.492;2024-03-08T02:28:21;10.55;;;6.28;;
65471;SDS011;52068;50.710;14.492;2024-03-08T02:30:47;7.63;;;5.65;;
65471;SDS011;52068;50.710;14.492;2024-03-08T02:33:14;9.93;;;6.20;;
65471;SDS011;52068;50.710;14.492;2024-03-08T02:35:43;9.90;;;6.03;;
65471;SDS011;52068;50.710;14.492;2024-03-08T02:38:12;7.57;;;5.70;;
65471;SDS011;52068;50.710;14.492;2024-03-08T02:40:41;10.70;;;5.85;;
65471;SDS011;52068;50.710;14.492;2024-03-08T02:43:13;10.33;;;6.20;;
65471;SDS011;52068;50.710;14.492;2024-03-08T02:45:40;8.27;;;5.55;;
65471;SDS011;52068;50.710;14.492;2024-03-08T02:48:09;10.18;;;6.20;;
65471;SDS011;52068;50.710;14.492;2024-03-08T02:50:36;7.82;;;5.25;;
65471;SDS011;52068;50.710;14.492;2024-03-08T02:53:01;6.95;;;5.82;;
65471;SDS011;52068;50.710;14.492;2024-03-08T02:55:27;7.78;;;5.28;;
65471;SDS011;52068;50.710;14.492;2024-03-08T02:57:52;7.53;;;5.45;;
65471;SDS011;52068;50.710;14.492;2024-03-08T03:00:19;7.65;;;5.53;;
65471;SDS011;52068;50.710;14.492;2024-03-08T03:02:48;9.95;;;5.75;;
65471;SDS011;52068;50.710;14.492;2024-03-08T03:05:17;9.02;;;6.15;;
65471;SDS011;52068;50.710;14.492;2024-03-08T03:07:42;9.68;;;5.50;;
65471;SDS011;52068;50.710;14.492;2024-03-08T03:10:08;11.48;;;5.75;;
65471;SDS011;52068;50.710;14.492;2024-03-08T03:12:33;10.27;;;6.35;;
65471;SDS011;52068;50.710;14.492;2024-03-08T03:14:59;10.52;;;6.55;;
65471;SDS011;52068;50.710;14.492;2024-03-08T03:17:24;8.13;;;5.93;;
65471;SDS011;52068;50.710;14.492;2024-03-08T03:19:50;7.63;;;5.60;;
65471;SDS011;52068;50.710;14.492;2024-03-08T03:22:19;7.95;;;5.72;;
65471;SDS011;52068;50.710;14.492;2024-03-08T03:24:45;8.15;;;5.53;;
65471;SDS011;52068;50.710;14.492;2024-03-08T03:27:16;9.10;;;5.80;;
65471;SDS011;52068;50.710;14.492;2024-03-08T03:29:42;9.75;;;5.50;;
65471;SDS011;52068;50.710;14.492;2024-03-08T03:32:11;9.27;;;5.43;;
65471;SDS011;52068;50.710;14.492;2024-03-08T03:34:37;8.32;;;5.65;;
65471;SDS011;52068;50.710;14.492;2024-03-08T03:37:03;8.35;;;6.03;;
65471;SDS011;52068;50.710;14.492;2024-03-08T03:39:30;9.55;;;5.75;;
65471;SDS011;52068;50.710;14.492;2024-03-08T03:42:13;10.25;;;6.15;;
65471;SDS011;52068;50.710;14.492;2024-03-08T03:44:39;7.80;;;5.55;;
65471;SDS011;52068;50.710;14.492;2024-03-08T03:47:05;8.85;;;5.82;;
65471;SDS011;52068;50.710;14.492;2024-03-08T03:49:31;7.00;;;5.60;;
65471;SDS011;52068;50.710;14.492;2024-03-08T03:51:58;6.97;;;5.40;;
65471;SDS011;52068;50.710;14.492;2024-03-08T03:54:23;9.00;;;6.05;;
65471;SDS011;52068;50.710;14.492;2024-03-08T03:56:49;7.40;;;5.07;;
65471;SDS011;52068;50.710;14.492;2024-03-08T03:59:17;8.32;;;5.50;;
65471;SDS011;52068;50.710;14.492;2024-03-08T04:01:43;8.77;;;5.72;;
65471;SDS011;52068;50.710;14.492;2024-03-08T04:04:08;7.03;;;5.43;;
65471;SDS011;52068;50.710;14.492;2024-03-08T04:06:34;7.63;;;5.55;;
65471;SDS011;52068;50.710;14.492;2024-03-08T04:08:59;9.02;;;5.45;;
65471;SDS011;52068;50.710;14.492;2024-03-08T04:11:25;8.77;;;5.82;;
65471;SDS011;52068;50.710;14.492;2024-03-08T04:13:50;9.63;;;6.10;;
65471;SDS011;52068;50.710;14.492;2024-03-08T04:16:17;8.05;;;5.15;;
65471;SDS011;52068;50.710;14.492;2024-03-08T04:18:44;9.70;;;6.30;;
65471;SDS011;52068;50.710;14.492;2024-03-08T04:21:09;11.85;;;5.53;;
65471;SDS011;52068;50.710;14.492;2024-03-08T04:23:34;13.65;;;6.25;;
65471;SDS011;52068;50.710;14.492;2024-03-08T04:26:01;8.52;;;5.75;;
65471;SDS011;52068;50.710;14.492;2024-03-08T04:28:28;14.38;;;5.85;;
65471;SDS011;52068;50.710;14.492;2024-03-08T04:30:53;8.93;;;6.47;;
65471;SDS011;52068;50.710;14.492;2024-03-08T04:33:19;7.03;;;5.47;;
65471;SDS011;52068;50.710;14.492;2024-03-08T04:35:46;8.73;;;5.80;;
65471;SDS011;52068;50.710;14.492;2024-03-08T04:38:12;7.25;;;5.45;;
65471;SDS011;52068;50.710;14.492;2024-03-08T04:40:37;11.57;;;6.22;;
65471;SDS011;52068;50.710;14.492;2024-03-08T04:43:03;7.18;;;5.18;;
65471;SDS011;52068;50.710;14.492;2024-03-08T04:45:29;9.48;;;5.70;;
65471;SDS011;52068;50.710;14.492;2024-03-08T04:47:54;8.65;;;5.63;;
65471;SDS011;52068;50.710;14.492;2024-03-08T04:50:19;9.88;;;5.40;;
65471;SDS011;52068;50.710;14.492;2024-03-08T04:52:45;6.93;;;5.25;;
65471;SDS011;52068;50.710;14.492;2024-03-08T04:55:11;6.82;;;5.05;;
65471;SDS011;52068;50.710;14.492;2024-03-08T04:57:37;9.77;;;5.38;;
65471;SDS011;52068;50.710;14.492;2024-03-08T05:00:03;7.10;;;5.35;;
65471;SDS011;52068;50.710;14.492;2024-03-08T05:02:36;13.82;;;5.22;;
65471;SDS011;52068;50.710;14.492;2024-03-08T05:05:01;7.65;;;4.95;;
65471;SDS011;52068;50.710;14.492;2024-03-08T05:07:27;12.43;;;5.72;;
65471;SDS011;52068;50.710;14.492;2024-03-08T05:09:52;7.75;;;5.55;;
65471;SDS011;52068;50.710;14.492;2024-03-08T05:12:18;7.57;;;5.75;;
65471;SDS011;52068;50.710;14.492;2024-03-08T05:14:45;9.00;;;5.50;;
65471;SDS011;52068;50.710;14.492;2024-03-08T05:17:11;7.80;;;5.70;;
65471;SDS011;52068;50.710;14.492;2024-03-08T05:19:37;8.10;;;5.70;;
65471;SDS011;52068;50.710;14.492;2024-03-08T05:22:03;6.80;;;5.05;;
65471;SDS011;52068;50.710;14.492;2024-03-08T05:24:29;7.68;;;5.38;;
65471;SDS011;52068;50.710;14.492;2024-03-08T05:26:55;9.30;;;5.75;;
65471;SDS011;52068;50.710;14.492;2024-03-08T05:29:20;9.20;;;5.43;;
65471;SDS011;52068;50.710;14.492;2024-03-08T05:31:49;10.95;;;5.85;;
65471;SDS011;52068;50.710;14.492;2024-03-08T05:34:15;8.30;;;5.53;;
65471;SDS011;52068;50.710;14.492;2024-03-08T05:36:41;8.38;;;5.10;;
65471;SDS011;52068;50.710;14.492;2024-03-08T05:39:11;13.43;;;5.85;;
65471;SDS011;52068;50.710;14.492;2024-03-08T05:41:38;7.15;;;5.10;;
65471;SDS011;52068;50.710;14.492;2024-03-08T05:44:05;10.65;;;5.82;;
65471;SDS011;52068;50.710;14.492;2024-03-08T05:46:31;6.82;;;5.05;;
65471;SDS011;52068;50.710;14.492;2024-03-08T05:48:56;9.05;;;5.50;;
65471;SDS011;52068;50.710;14.492;2024-03-08T05:51:23;9.60;;;6.00;;
65471;SDS011;52068;50.710;14.492;2024-03-08T05:53:51;11.63;;;6.25;;
65471;SDS011;52068;50.710;14.492;2024-03-08T05:56:18;7.35;;;5.15;;
65471;SDS011;52068;50.710;14.492;2024-03-08T05:58:43;9.68;;;5.20;;
65471;SDS011;52068;50.710;14.492;2024-03-08T06:01:09;11.73;;;5.10;;
65471;SDS011;52068;50.710;14.492;2024-03-08T06:03:37;8.43;;;5.70;;
65471;SDS011;52068;50.710;14.492;2024-03-08T06:06:09;8.40;;;5.60;;
65471;SDS011;52068;50.710;14.492;2024-03-08T06:08:34;10.65;;;5.68;;
65471;SDS011;52068;50.710;14.492;2024-03-08T06:11:00;12.95;;;5.55;;
65471;SDS011;52068;50.710;14.492;2024-03-08T06:13:27;10.77;;;5.88;;
65471;SDS011;52068;50.710;14.492;2024-03-08T06:15:52;9.50;;;6.22;;
65471;SDS011;52068;50.710;14.492;2024-03-08T06:18:18;15.45;;;5.10;;
65471;SDS011;52068;50.710;14.492;2024-03-08T06:20:43;12.05;;;6.15;;
65471;SDS011;52068;50.710;14.492;2024-03-08T06:23:09;10.73;;;5.68;;
65471;SDS011;52068;50.710;14.492;2024-03-08T06:25:34;12.45;;;5.72;;
65471;SDS011;52068;50.710;14.492;2024-03-08T06:28:00;9.93;;;5.53;;
65471;SDS011;52068;50.710;14.492;2024-03-08T06:30:25;14.57;;;5.88;;
65471;SDS011;52068;50.710;14.492;2024-03-08T06:32:51;9.15;;;5.82;;
65471;SDS011;52068;50.710;14.492;2024-03-08T06:35:16;14.40;;;5.88;;
65471;SDS011;52068;50.710;14.492;2024-03-08T06:37:42;7.95;;;5.53;;
65471;SDS011;52068;50.710;14.492;2024-03-08T06:40:09;8.82;;;5.97;;
65471;SDS011;52068;50.710;14.492;2024-03-08T06:42:38;9.57;;;5.90;;
65471;SDS011;52068;50.710;14.492;2024-03-08T06:45:04;12.15;;;5.82;;
65471;SDS011;52068;50.710;14.492;2024-03-08T06:47:30;9.63;;;5.88;;
65471;SDS011;52068;50.710;14.492;2024-03-08T06:49:57;7.78;;;5.65;;
65471;SDS011;52068;50.710;14.492;2024-03-08T06:52:22;9.93;;;5.80;;
65471;SDS011;52068;50.710;14.492;2024-03-08T06:54:48;9.23;;;5.97;;
65471;SDS011;52068;50.710;14.492;2024-03-08T06:57:14;12.25;;;5.93;;
65471;SDS011;52068;50.710;14.492;2024-03-08T06:59:41;11.38;;;5.90;;
65471;SDS011;52068;50.710;14.492;2024-03-08T07:02:07;7.07;;;5.50;;
65471;SDS011;52068;50.710;14.492;2024-03-08T07:04:34;8.73;;;5.75;;
65471;SDS011;52068;50.710;14.492;2024-03-08T07:07:03;10.70;;;5.43;;
65471;SDS011;52068;50.710;14.492;2024-03-08T07:09:29;7.97;;;5.25;;
65471;SDS011;52068;50.710;14.492;2024-03-08T07:11:54;11.60;;;5.95;;
65471;SDS011;52068;50.710;14.492;2024-03-08T07:14:21;7.32;;;5.10;;
65471;SDS011;52068;50.710;14.492;2024-03-08T07:16:47;12.00;;;5.55;;
65471;SDS011;52068;50.710;14.492;2024-03-08T07:19:12;8.65;;;5.55;;
65471;SDS011;52068;50.710;14.492;2024-03-08T07:21:38;8.88;;;5.18;;
65471;SDS011;52068;50.710;14.492;2024-03-08T07:24:03;7.43;;;5.53;;
65471;SDS011;52068;50.710;14.492;2024-03-08T07:26:46;8.95;;;5.60;;
65471;SDS011;52068;50.710;14.492;2024-03-08T07:29:15;9.00;;;5.65;;
65471;SDS011;52068;50.710;14.492;2024-03-08T07:31:40;6.47;;;5.25;;
65471;SDS011;52068;50.710;14.492;2024-03-08T07:34:06;9.00;;;5.63;;
65471;SDS011;52068;50.710;14.492;2024-03-08T07:36:32;7.22;;;5.43;;
65471;SDS011;52068;50.710;14.492;2024-03-08T07:38:59;10.35;;;5.32;;
65471;SDS011;52068;50.710;14.492;2024-03-08T07:41:24;10.07;;;5.97;;
65471;SDS011;52068;50.710;14.492;2024-03-08T07:43:50;10.43;;;6.05;;
65471;SDS011;52068;50.710;14.492;2024-03-08T07:46:15;7.07;;;5.57;;
65471;SDS011;52068;50.710;14.492;2024-03-08T07:48:43;9.85;;;5.82;;
65471;SDS011;52068;50.710;14.492;2024-03-08T07:51:10;9.23;;;6.18;;
65471;SDS011;52068;50.710;14.492;2024-03-08T07:53:37;10.45;;;5.30;;
65471;SDS011;52068;50.710;14.492;2024-03-08T07:56:03;8.25;;;5.55;;
65471;SDS011;52068;50.710;14.492;2024-03-08T07:58:30;7.85;;;5.30;;
65471;SDS011;52068;50.710;14.492;2024-03-08T08:00:55;7.60;;;5.22;;
65471;SDS011;52068;50.710;14.492;2024-03-08T08:03:21;9.27;;;5.45;;
65471;SDS011;52068;50.710;14.492;2024-03-08T08:05:46;7.80;;;5.75;;
65471;SDS011;52068;50.710;14.492;2024-03-08T08:08:12;9.68;;;6.28;;
65471;SDS011;52068;50.710;14.492;2024-03-08T08:10:37;10.35;;;6.00;;
65471;SDS011;52068;50.710;14.492;2024-03-08T08:13:03;7.68;;;5.40;;
65471;SDS011;52068;50.710;14.492;2024-03-08T08:15:32;9.50;;;5.82;;
65471;SDS011;52068;50.710;14.492;2024-03-08T08:18:00;9.18;;;6.13;;
65471;SDS011;52068;50.710;14.492;2024-03-08T08:20:27;7.13;;;5.70;;
65471;SDS011;52068;50.710;14.492;2024-03-08T08:22:54;10.07;;;5.95;;
65471;SDS011;52068;50.710;14.492;2024-03-08T08:25:20;13.13;;;6.18;;
65471;SDS011;52068;50.710;14.492;2024-03-08T08:27:46;7.95;;;6.15;;
65471;SDS011;52068;50.710;14.492;2024-03-08T08:30:12;10.73;;;6.03;;
65471;SDS011;52068;50.710;14.492;2024-03-08T08:32:38;9.27;;;6.57;;
65471;SDS011;52068;50.710;14.492;2024-03-08T08:35:04;9.27;;;6.28;;
65471;SDS011;52068;50.710;14.492;2024-03-08T08:37:31;9.38;;;5.40;;
65471;SDS011;52068;50.710;14.492;2024-03-08T08:39:57;8.60;;;6.28;;
65471;SDS011;52068;50.710;14.492;2024-03-08T08:42:23;8.18;;;5.85;;
65471;SDS011;52068;50.710;14.492;2024-03-08T08:44:48;8.40;;;6.20;;
65471;SDS011;52068;50.710;14.492;2024-03-08T08:47:15;7.45;;;5.80;;
65471;SDS011;52068;50.710;14.492;2024-03-08T08:49:43;8.38;;;5.57;;
65471;SDS011;52068;50.710;14.492;2024-03-08T08:52:11;9.68;;;6.32;;
65471;SDS011;52068;50.710;14.492;2024-03-08T08:54:36;10.20;;;6.15;;
65471;SDS011;52068;50.710;14.492;2024-03-08T08:57:02;9.18;;;5.68;;
65471;SDS011;52068;50.710;14.492;2024-03-08T08:59:32;10.45;;;6.22;;
65471;SDS011;52068;50.710;14.492;2024-03-08T09:02:01;9.10;;;5.68;;
65471;SDS011;52068;50.710;14.492;2024-03-08T09:04:28;7.55;;;5.47;;
65471;SDS011;52068;50.710;14.492;2024-03-08T09:06:54;9.52;;;6.03;;
65471;SDS011;52068;50.710;14.492;2024-03-08T09:09:19;8.80;;;5.82;;
65471;SDS011;52068;50.710;14.492;2024-03-08T09:11:47;8.35;;;5.88;;
65471;SDS011;52068;50.710;14.492;2024-03-08T09:14:12;6.90;;;5.40;;
65471;SDS011;52068;50.710;14.492;2024-03-08T09:16:37;7.80;;;5.78;;
65471;SDS011;52068;50.710;14.492;2024-03-08T09:19:03;9.18;;;6.28;;
65471;SDS011;52068;50.710;14.492;2024-03-08T09:21:28;8.77;;;5.72;;
65471;SDS011;52068;50.710;14.492;2024-03-08T09:23:55;9.73;;;6.00;;
65471;SDS011;52068;50.710;14.492;2024-03-08T09:26:20;8.63;;;5.90;;
65471;SDS011;52068;50.710;14.492;2024-03-08T09:28:47;7.32;;;5.90;;
65471;SDS011;52068;50.710;14.492;2024-03-08T09:31:12;7.35;;;5.35;;
65471;SDS011;52068;50.710;14.492;2024-03-08T09:33:38;6.85;;;5.15;;
65471;SDS011;52068;50.710;14.492;2024-03-08T09:36:04;8.00;;;5.30;;
65471;SDS011;52068;50.710;14.492;2024-03-08T09:38:32;6.88;;;5.22;;
65471;SDS011;52068;50.710;14.492;2024-03-08T09:40:59;7.65;;;5.45;;
65471;SDS011;52068;50.710;14.492;2024-03-08T09:43:26;7.40;;;5.18;;
65471;SDS011;52068;50.710;14.492;2024-03-08T09:45:53;8.60;;;5.20;;
65471;SDS011;52068;50.710;14.492;2024-03-08T09:48:19;7.20;;;5.07;;
65471;SDS011;52068;50.710;14.492;2024-03-08T09:50:45;7.35;;;5.18;;
65471;SDS011;52068;50.710;14.492;2024-03-08T09:53:14;11.57;;;5.72;;
65471;SDS011;52068;50.710;14.492;2024-03-08T09:55:40;7.85;;;5.28;;
65471;SDS011;52068;50.710;14.492;2024-03-08T09:58:11;11.15;;;5.53;;
65471;SDS011;52068;50.710;14.492;2024-03-08T10:00:43;7.30;;;5.88;;
65471;SDS011;52068;50.710;14.492;2024-03-08T10:03:08;7.65;;;5.50;;
65471;SDS011;52068;50.710;14.492;2024-03-08T10:05:35;8.52;;;4.90;;
65471;SDS011;52068;50.710;14.492;2024-03-08T10:08:01;7.63;;;5.22;;
65471;SDS011;52068;50.710;14.492;2024-03-08T10:10:27;8.40;;;5.85;;
65471;SDS011;52068;50.710;14.492;2024-03-08T10:12:52;6.63;;;5.32;;
65471;SDS011;52068;50.710;14.492;2024-03-08T10:15:18;8.32;;;5.40;;
65471;SDS011;52068;50.710;14.492;2024-03-08T10:17:45;7.72;;;5.10;;
65471;SDS011;52068;50.710;14.492;2024-03-08T10:20:14;7.68;;;5.93;;
65471;SDS011;52068;50.710;14.492;2024-03-08T10:22:40;10.43;;;5.05;;
65471;SDS011;52068;50.710;14.492;2024-03-08T10:25:09;7.15;;;5.30;;
65471;SDS011;52068;50.710;14.492;2024-03-08T10:27:36;8.88;;;5.57;;
65471;SDS011;52068;50.710;14.492;2024-03-08T10:30:01;7.80;;;5.18;;
65471;SDS011;52068;50.710;14.492;2024-03-08T10:32:27;10.32;;;5.80;;
65471;SDS011;52068;50.710;14.492;2024-03-08T10:34:52;7.93;;;5.47;;
65471;SDS011;52068;50.710;14.492;2024-03-08T10:37:20;7.82;;;5.35;;
65471;SDS011;52068;50.710;14.492;2024-03-08T10:39:56;7.22;;;5.20;;
65471;SDS011;52068;50.710;14.492;2024-03-08T10:42:35;7.85;;;5.50;;
65471;SDS011;52068;50.710;14.492;2024-03-08T10:45:50;8.90;;;5.85;;
65471;SDS011;52068;50.710;14.492;2024-03-08T10:48:16;8.15;;;5.22;;
65471;SDS011;52068;50.710;14.492;2024-03-08T10:51:07;8.68;;;5.60;;
65471;SDS011;52068;50.710;14.492;2024-03-08T10:53:36;6.47;;;4.95;;
65471;SDS011;52068;50.710;14.492;2024-03-08T10:56:04;7.13;;;5.35;;
65471;SDS011;52068;50.710;14.492;2024-03-08T10:58:30;8.00;;;5.25;;
65471;SDS011;52068;50.710;14.492;2024-03-08T11:00:57;9.90;;;5.38;;
65471;SDS011;52068;50.710;14.492;2024-03-08T11:06:07;7.47;;;5.22;;
65471;SDS011;52068;50.710;14.492;2024-03-08T11:08:35;7.57;;;5.18;;
65471;SDS011;52068;50.710;14.492;2024-03-08T11:11:01;9.57;;;4.75;;
65471;SDS011;52068;50.710;14.492;2024-03-08T11:13:36;6.60;;;4.95;;
65471;SDS011;52068;50.710;14.492;2024-03-08T11:16:09;7.50;;;5.25;;
65471;SDS011;52068;50.710;14.492;2024-03-08T11:18:35;7.78;;;4.82;;
65471;SDS011;52068;50.710;14.492;2024-03-08T11:21:03;5.95;;;4.35;;
65471;SDS011;52068;50.710;14.492;2024-03-08T11:23:39;5.75;;;4.63;;
65471;SDS011;52068;50.710;14.492;2024-03-08T11:26:26;6.20;;;4.60;;
65471;SDS011;52068;50.710;14.492;2024-03-08T11:28:51;7.55;;;4.90;;
65471;SDS011;52068;50.710;14.492;2024-03-08T11:33:46;8.23;;;5.00;;
65471;SDS011;52068;50.710;14.492;2024-03-08T11:36:14;6.85;;;4.72;;
65471;SDS011;52068;50.710;14.492;2024-03-08T11:38:47;5.18;;;4.40;;
65471;SDS011;52068;50.710;14.492;2024-03-08T11:41:17;6.65;;;4.60;;
65471;SDS011;52068;50.710;14.492;2024-03-08T11:43:46;6.90;;;5.05;;
65471;SDS011;52068;50.710;14.492;2024-03-08T11:46:13;6.95;;;4.38;;
65471;SDS011;52068;50.710;14.492;2024-03-08T11:48:40;6.20;;;4.30;;
65471;SDS011;52068;50.710;14.492;2024-03-08T11:51:09;6.22;;;4.72;;
65471;SDS011;52068;50.710;14.492;2024-03-08T11:53:37;9.27;;;4.40;;
65471;SDS011;52068;50.710;14.492;2024-03-08T11:56:12;6.03;;;4.88;;
65471;SDS011;52068;50.710;14.492;2024-03-08T11:58:39;5.78;;;4.43;;
65471;SDS011;52068;50.710;14.492;2024-03-08T12:01:05;6.03;;;4.63;;
65471;SDS011;52068;50.710;14.492;2024-03-08T12:03:32;6.15;;;4.45;;
65471;SDS011;52068;50.710;14.492;2024-03-08T12:05:59;5.68;;;4.43;;
65471;SDS011;52068;50.710;14.492;2024-03-08T12:08:25;6.35;;;4.57;;
65471;SDS011;52068;50.710;14.492;2024-03-08T12:10:53;8.07;;;4.13;;
65471;SDS011;52068;50.710;14.492;2024-03-08T12:13:24;6.85;;;4.57;;
65471;SDS011;52068;50.710;14.492;2024-03-08T12:16:00;5.93;;;4.10;;
65471;SDS011;52068;50.710;14.492;2024-03-08T12:18:28;6.27;;;4.47;;
65471;SDS011;52068;50.710;14.492;2024-03-08T12:21:31;6.60;;;4.45;;
65471;SDS011;52068;50.710;14.492;2024-03-08T12:26:28;12.15;;;4.45;;
65471;SDS011;52068;50.710;14.492;2024-03-08T12:29:00;7.57;;;4.32;;
65471;SDS011;52068;50.710;14.492;2024-03-08T12:31:46;9.43;;;4.30;;
65471;SDS011;52068;50.710;14.492;2024-03-08T12:34:18;8.30;;;4.50;;
65471;SDS011;52068;50.710;14.492;2024-03-08T12:36:47;8.98;;;4.22;;
65471;SDS011;52068;50.710;14.492;2024-03-08T12:39:18;6.20;;;4.13;;
65471;SDS011;52068;50.710;14.492;2024-03-08T12:41:48;22.63;;;4.30;;
65471;SDS011;52068;50.710;14.492;2024-03-08T12:44:16;9.30;;;4.05;;
65471;SDS011;52068;50.710;14.492;2024-03-08T12:46:43;7.65;;;4.68;;
65471;SDS011;52068;50.710;14.492;2024-03-08T12:49:10;5.18;;;4.32;;
65471;SDS011;52068;50.710;14.492;2024-03-08T12:51:37;10.20;;;4.47;;
65471;SDS011;52068;50.710;14.492;2024-03-08T12:54:03;5.68;;;3.88;;
65471;SDS011;52068;50.710;14.492;2024-03-08T12:56:32;9.45;;;4.10;;
65471;SDS011;52068;50.710;14.492;2024-03-08T12:58:59;9.35;;;4.18;;
65471;SDS011;52068;50.710;14.492;2024-03-08T13:01:25;5.57;;;3.83;;
65471;SDS011;52068;50.710;14.492;2024-03-08T13:03:52;5.90;;;3.95;;
65471;SDS011;52068;50.710;14.492;2024-03-08T13:06:18;5.00;;;3.80;;
65471;SDS011;52068;50.710;14.492;2024-03-08T13:08:46;5.72;;;4.35;;
65471;SDS011;52068;50.710;14.492;2024-03-08T13:11:13;9.50;;;4.38;;
65471;SDS011;52068;50.710;14.492;2024-03-08T13:13:40;5.85;;;4.07;;
65471;SDS011;52068;50.710;14.492;2024-03-08T13:16:06;6.05;;;3.85;;
65471;SDS011;52068;50.710;14.492;2024-03-08T13:18:35;6.95;;;4.50;;
65471;SDS011;52068;50.710;14.492;2024-03-08T13:21:00;8.32;;;3.90;;
65471;SDS011;52068;50.710;14.492;2024-03-08T13:23:32;8.40;;;4.22;;
65471;SDS011;52068;50.710;14.492;2024-03-08T13:26:09;8.10;;;4.20;;
65471;SDS011;52068;50.710;14.492;2024-03-08T13:28:47;6.88;;;3.95;;
65471;SDS011;52068;50.710;14.492;2024-03-08T13:31:18;7.50;;;3.63;;
65471;SDS011;52068;50.710;14.492;2024-03-08T13:33:47;5.35;;;3.88;;
65471;SDS011;52068;50.710;14.492;2024-03-08T13:36:13;5.35;;;3.60;;
65471;SDS011;52068;50.710;14.492;2024-03-08T13:38:45;9.07;;;4.53;;
65471;SDS011;52068;50.710;14.492;2024-03-08T13:41:11;6.80;;;3.72;;
65471;SDS011;52068;50.710;14.492;2024-03-08T13:43:39;5.40;;;4.10;;
65471;SDS011;52068;50.710;14.492;2024-03-08T13:46:05;8.00;;;3.90;;
65471;SDS011;52068;50.710;14.492;2024-03-08T13:48:32;8.00;;;3.80;;
65471;SDS011;52068;50.710;14.492;2024-03-08T13:50:58;6.75;;;4.07;;
65471;SDS011;52068;50.710;14.492;2024-03-08T13:53:23;5.10;;;3.78;;
65471;SDS011;52068;50.710;14.492;2024-03-08T13:55:49;5.72;;;3.67;;
65471;SDS011;52068;50.710;14.492;2024-03-08T13:58:15;13.95;;;4.13;;
65471;SDS011;52068;50.710;14.492;2024-03-08T14:00:41;7.40;;;3.75;;
65471;SDS011;52068;50.710;14.492;2024-03-08T14:03:08;22.10;;;4.45;;
65471;SDS011;52068;50.710;14.492;2024-03-08T14:05:35;9.35;;;3.83;;
65471;SDS011;52068;50.710;14.492;2024-03-08T14:08:04;6.00;;;3.47;;
65471;SDS011;52068;50.710;14.492;2024-03-08T14:10:32;5.53;;;3.75;;
65471;SDS011;52068;50.710;14.492;2024-03-08T14:12:58;4.90;;;3.60;;
65471;SDS011;52068;50.710;14.492;2024-03-08T14:15:23;18.55;;;3.67;;
65471;SDS011;52068;50.710;14.492;2024-03-08T14:17:53;5.35;;;3.63;;
65471;SDS011;52068;50.710;14.492;2024-03-08T14:20:19;8.93;;;3.75;;
65471;SDS011;52068;50.710;14.492;2024-03-08T14:22:44;7.90;;;4.20;;
65471;SDS011;52068;50.710;14.492;2024-03-08T14:25:11;5.75;;;4.13;;
65471;SDS011;52068;50.710;14.492;2024-03-08T14:27:42;5.70;;;3.25;;
65471;SDS011;52068;50.710;14.492;2024-03-08T14:30:11;5.40;;;3.85;;
65471;SDS011;52068;50.710;14.492;2024-03-08T14:32:37;5.03;;;3.78;;
65471;SDS011;52068;50.710;14.492;2024-03-08T14:35:04;5.13;;;3.90;;
65471;SDS011;52068;50.710;14.492;2024-03-08T14:37:30;4.85;;;3.92;;
65471;SDS011;52068;50.710;14.492;2024-03-08T14:39:55;5.30;;;3.75;;